createdAt,value
2022-08-25T00:01:55.923Z,19.80
2022-08-25T00:04:24.103Z,19.73
2022-08-25T00:06:52.248Z,19.73
2022-08-25T00:09:22.877Z,19.68
2022-08-25T00:11:51.198Z,19.65
2022-08-25T00:14:35.496Z,19.69
2022-08-25T00:17:05.752Z,19.71
2022-08-25T00:19:36.857Z,19.62
2022-08-25T00:22:05.114Z,19.61
2022-08-25T00:24:39.152Z,19.59
2022-08-25T00:27:07.540Z,19.52
2022-08-25T00:29:35.944Z,19.56
2022-08-25T00:32:04.327Z,19.59
2022-08-25T00:34:35.577Z,19.54
2022-08-25T00:37:08.816Z,19.47
2022-08-25T00:39:36.945Z,19.49
2022-08-25T00:42:11.714Z,19.47
2022-08-25T00:44:48.872Z,19.46
2022-08-25T00:47:17.210Z,19.37
2022-08-25T00:49:51.562Z,19.31
2022-08-25T00:52:49.740Z,19.27
2022-08-25T00:55:27.229Z,19.23
2022-08-25T00:58:21.659Z,19.16
2022-08-25T01:00:52.312Z,19.06
2022-08-25T01:03:20.655Z,19.07
2022-08-25T01:05:51.929Z,19.05
2022-08-25T01:08:22.305Z,19.00
2022-08-25T01:10:50.602Z,19.01
2022-08-25T01:13:49.340Z,18.97
2022-08-25T01:16:17.481Z,19.00
2022-08-25T01:18:54.035Z,18.96
2022-08-25T01:21:23.672Z,18.94
2022-08-25T01:23:52.138Z,18.91
2022-08-25T01:26:25.125Z,18.87
2022-08-25T01:29:17.845Z,18.86
2022-08-25T01:31:46.321Z,18.84
2022-08-25T01:34:14.287Z,18.84
2022-08-25T01:36:42.656Z,18.79
2022-08-25T01:39:11.468Z,18.78
2022-08-25T01:42:06.766Z,18.72
2022-08-25T01:44:37.104Z,18.70
2022-08-25T01:47:05.289Z,18.64
2022-08-25T01:49:34.057Z,18.67
2022-08-25T01:52:03.998Z,18.66
2022-08-25T01:54:31.870Z,18.68
2022-08-25T01:57:00.104Z,18.68
2022-08-25T01:59:27.929Z,18.66
2022-08-25T02:02:00.185Z,18.63
2022-08-25T02:04:33.335Z,18.59
2022-08-25T02:07:03.103Z,18.55
2022-08-25T02:09:31.013Z,18.55
2022-08-25T02:11:58.838Z,18.49
2022-08-25T02:14:26.627Z,18.48
2022-08-25T02:16:55.331Z,18.47
2022-08-25T02:19:24.750Z,18.46
2022-08-25T02:21:55.908Z,18.38
2022-08-25T02:24:23.674Z,18.36
2022-08-25T02:26:51.748Z,18.34
2022-08-25T02:29:19.953Z,18.30
2022-08-25T02:31:48.119Z,18.29
2022-08-25T02:34:16.383Z,18.29
2022-08-25T02:36:44.946Z,18.28
2022-08-25T02:39:13.401Z,18.25
2022-08-25T02:41:41.314Z,18.21
2022-08-25T02:44:09.472Z,18.19
2022-08-25T02:46:37.593Z,18.22
2022-08-25T02:49:06.766Z,18.14
2022-08-25T02:51:35.362Z,18.10
2022-08-25T02:54:03.745Z,18.05
2022-08-25T02:56:31.914Z,18.11
2022-08-25T02:59:01.273Z,18.13
2022-08-25T03:01:30.235Z,18.07
2022-08-25T03:03:58.305Z,18.03
2022-08-25T03:06:27.391Z,17.99
2022-08-25T03:08:55.813Z,18.01
2022-08-25T03:11:24.295Z,18.02
2022-08-25T03:13:52.422Z,18.03
2022-08-25T03:16:20.594Z,17.98
2022-08-25T03:18:48.608Z,17.95
2022-08-25T03:21:17.134Z,17.88
2022-08-25T03:23:45.928Z,17.88
2022-08-25T03:26:33.742Z,17.82
2022-08-25T03:29:02.364Z,17.81
2022-08-25T03:31:30.464Z,17.80
2022-08-25T03:33:58.323Z,17.77
2022-08-25T03:36:26.726Z,17.75
2022-08-25T03:38:54.751Z,17.73
2022-08-25T03:41:29.094Z,17.71
2022-08-25T03:43:57.839Z,17.69
2022-08-25T03:46:27.827Z,17.68
2022-08-25T03:48:55.883Z,17.69
2022-08-25T03:51:25.074Z,17.68
2022-08-25T03:53:54.057Z,17.72
2022-08-25T03:56:21.881Z,17.76
2022-08-25T03:58:49.903Z,17.77
2022-08-25T04:01:18.322Z,17.69
2022-08-25T04:03:46.764Z,17.61
2022-08-25T04:06:14.970Z,17.56
2022-08-25T04:08:42.840Z,17.52
2022-08-25T04:11:11.501Z,17.52
2022-08-25T04:13:39.367Z,17.48
2022-08-25T04:16:22.490Z,17.45
2022-08-25T04:18:50.786Z,17.45
2022-08-25T04:21:19.511Z,17.39
2022-08-25T04:23:49.202Z,17.40
2022-08-25T04:26:22.346Z,17.38
2022-08-25T04:28:50.629Z,17.36
2022-08-25T04:31:19.567Z,17.39
2022-08-25T04:33:50.079Z,17.36
2022-08-25T04:36:18.262Z,17.38
2022-08-25T04:38:47.251Z,17.41
2022-08-25T04:41:15.945Z,17.33
2022-08-25T04:43:45.126Z,17.32
2022-08-25T04:46:23.963Z,17.33
2022-08-25T04:48:52.929Z,17.32
2022-08-25T04:51:25.011Z,17.29
2022-08-25T04:53:53.114Z,17.28
2022-08-25T04:56:23.522Z,17.32
2022-08-25T04:58:52.379Z,17.33
2022-08-25T05:01:23.526Z,17.25
2022-08-25T05:04:02.982Z,17.22
2022-08-25T05:06:31.410Z,17.27
2022-08-25T05:09:00.264Z,17.30
2022-08-25T05:11:30.050Z,17.30
2022-08-25T05:14:01.935Z,17.31
2022-08-25T05:16:30.278Z,17.31
2022-08-25T05:18:58.307Z,17.32
2022-08-25T05:21:28.704Z,17.36
2022-08-25T05:23:58.679Z,17.42
2022-08-25T05:26:27.600Z,17.45
2022-08-25T05:28:55.879Z,17.47
2022-08-25T05:31:24.574Z,17.49
2022-08-25T05:33:53.048Z,17.54
2022-08-25T05:36:21.366Z,17.59
2022-08-25T05:38:49.239Z,17.63
2022-08-25T05:41:19.526Z,17.67
2022-08-25T05:43:49.866Z,17.74
2022-08-25T05:46:19.060Z,17.78
2022-08-25T05:48:48.434Z,17.83
2022-08-25T05:51:17.038Z,17.90
2022-08-25T05:53:46.322Z,17.97
2022-08-25T05:56:15.448Z,18.04
2022-08-25T05:58:43.802Z,18.11
2022-08-25T06:01:30.759Z,18.17
2022-08-25T06:03:58.665Z,18.23
2022-08-25T06:06:27.506Z,18.29
2022-08-25T06:08:55.364Z,18.35
2022-08-25T06:11:23.325Z,18.42
2022-08-25T06:13:51.194Z,18.48
2022-08-25T06:16:19.751Z,18.52
2022-08-25T06:18:47.570Z,18.62
2022-08-25T06:21:21.543Z,18.73
2022-08-25T06:23:51.430Z,18.79
2022-08-25T06:26:21.773Z,18.85
2022-08-25T06:28:52.333Z,18.95
2022-08-25T06:31:21.528Z,19.00
2022-08-25T06:33:49.468Z,19.06
2022-08-25T06:36:17.252Z,19.13
2022-08-25T06:38:45.624Z,19.19
2022-08-25T06:41:13.839Z,19.27
2022-08-25T06:43:48.143Z,19.34
2022-08-25T06:46:20.261Z,19.42
2022-08-25T06:48:48.702Z,19.46
2022-08-25T06:51:18.091Z,19.50
2022-08-25T06:53:47.443Z,19.54
2022-08-25T06:56:15.931Z,19.57
2022-08-25T06:58:43.766Z,19.60
2022-08-25T07:01:28.030Z,19.66
2022-08-25T07:04:00.657Z,19.74
2022-08-25T07:06:29.819Z,19.81
2022-08-25T07:08:57.634Z,19.81
2022-08-25T07:11:25.493Z,19.79
2022-08-25T07:13:53.767Z,19.81
2022-08-25T07:16:21.933Z,19.87
2022-08-25T07:18:50.309Z,19.96
2022-08-25T07:21:20.656Z,20.06
2022-08-25T07:23:50.939Z,20.01
2022-08-25T07:26:39.327Z,19.99
2022-08-25T07:29:15.831Z,20.07
2022-08-25T07:31:43.771Z,20.20
2022-08-25T07:34:30.288Z,20.33
2022-08-25T07:36:58.141Z,20.42
2022-08-25T07:39:26.494Z,20.47
2022-08-25T07:41:56.791Z,20.50
2022-08-25T07:44:25.016Z,20.57
2022-08-25T07:46:56.156Z,20.60
2022-08-25T07:49:24.570Z,20.76
2022-08-25T07:52:04.390Z,20.89
2022-08-25T07:54:35.142Z,21.01
2022-08-25T07:57:06.661Z,21.10
2022-08-25T07:59:38.920Z,21.19
2022-08-25T08:02:16.077Z,21.29
2022-08-25T08:04:50.425Z,21.48
2022-08-25T08:07:43.145Z,21.57
2022-08-25T08:13:01.044Z,21.81
2022-08-25T08:15:29.891Z,21.97
2022-08-25T08:17:58.175Z,22.06
2022-08-25T08:20:27.248Z,22.06
2022-08-25T08:22:55.214Z,22.19
2022-08-25T08:25:26.548Z,22.19
2022-08-25T08:27:55.615Z,22.35
2022-08-25T08:30:26.468Z,22.46
2022-08-25T08:33:11.265Z,22.52
2022-08-25T08:35:41.117Z,22.63
2022-08-25T08:38:18.492Z,22.75
2022-08-25T08:42:07.703Z,22.85
2022-08-25T08:44:43.793Z,22.97
2022-08-25T08:47:33.517Z,23.04
2022-08-25T08:50:06.151Z,23.04
2022-08-25T08:52:44.856Z,23.14
2022-08-25T08:55:39.237Z,23.19
2022-08-25T08:58:33.119Z,23.31
2022-08-25T09:01:02.919Z,23.39
2022-08-25T09:03:41.033Z,23.48
2022-08-25T09:06:19.650Z,23.64
2022-08-25T09:08:47.525Z,23.91
2022-08-25T09:11:37.799Z,23.93
2022-08-25T09:14:05.629Z,23.98
2022-08-25T09:16:58.431Z,24.08
2022-08-25T09:19:44.964Z,24.18
2022-08-25T09:22:34.031Z,24.40
2022-08-25T09:25:22.027Z,24.59
2022-08-25T09:27:57.547Z,24.71
2022-08-25T09:30:27.595Z,24.83
2022-08-25T09:33:05.178Z,24.86
2022-08-25T09:35:35.761Z,24.93
2022-08-25T09:38:10.559Z,25.06
2022-08-25T09:40:42.530Z,25.32
2022-08-25T09:43:20.694Z,25.43
2022-08-25T09:46:03.621Z,25.42
2022-08-25T09:48:41.040Z,25.43
2022-08-25T09:51:23.035Z,25.55
2022-08-25T09:54:10.686Z,25.68
2022-08-25T09:56:48.167Z,25.72
2022-08-25T09:59:21.268Z,25.84
2022-08-25T10:02:04.528Z,25.82
2022-08-25T10:04:40.301Z,25.90
2022-08-25T10:07:31.069Z,25.95
2022-08-25T10:10:03.821Z,26.12
2022-08-25T10:12:35.053Z,26.26
2022-08-25T10:15:29.126Z,26.35
2022-08-25T10:17:58.735Z,26.41
2022-08-25T10:20:35.339Z,26.45
2022-08-25T10:23:14.568Z,26.44
2022-08-25T10:25:59.201Z,26.52
2022-08-25T10:29:00.816Z,26.70
2022-08-25T10:31:38.003Z,26.79
2022-08-25T10:34:32.482Z,26.98
2022-08-25T10:37:18.974Z,27.01
2022-08-25T10:39:56.279Z,27.05
2022-08-25T10:42:31.895Z,26.94
2022-08-25T10:45:42.375Z,26.97
2022-08-25T10:48:34.568Z,26.99
2022-08-25T10:51:25.689Z,26.94
2022-08-25T10:54:06.265Z,27.00
2022-08-25T10:56:40.327Z,27.11
2022-08-25T10:59:17.820Z,27.15
2022-08-25T11:02:13.049Z,27.20
2022-08-25T11:04:50.289Z,27.34
2022-08-25T11:07:47.548Z,27.45
2022-08-25T11:10:50.422Z,27.62
2022-08-25T11:13:38.907Z,27.70
2022-08-25T11:16:38.235Z,27.70
2022-08-25T11:19:28.114Z,27.72
2022-08-25T11:22:13.711Z,27.74
2022-08-25T11:25:07.951Z,27.75
2022-08-25T11:27:44.446Z,27.80
2022-08-25T11:30:15.868Z,27.85
2022-08-25T11:32:46.500Z,27.86
2022-08-25T11:35:15.510Z,27.98
2022-08-25T11:38:07.101Z,28.05
2022-08-25T11:40:39.950Z,28.17
2022-08-25T11:43:14.204Z,28.25
2022-08-25T11:46:05.228Z,28.38
2022-08-25T11:48:56.216Z,28.33
2022-08-25T11:51:43.352Z,28.42
2022-08-25T11:54:26.416Z,28.60
2022-08-25T11:56:57.956Z,28.59
2022-08-25T11:59:50.536Z,28.57
2022-08-25T12:02:49.986Z,28.71
2022-08-25T12:05:20.494Z,28.81
2022-08-25T12:07:48.244Z,28.80
2022-08-25T12:10:23.587Z,28.84
2022-08-25T12:12:59.777Z,28.82
2022-08-25T12:15:35.927Z,28.89
2022-08-25T12:18:12.975Z,28.78
2022-08-25T12:20:57.317Z,28.72
2022-08-25T12:23:44.904Z,28.83
2022-08-25T12:26:28.507Z,28.82
2022-08-25T12:29:08.237Z,28.90
2022-08-25T12:32:03.197Z,28.91
2022-08-25T12:35:13.069Z,28.94
2022-08-25T12:38:07.451Z,28.97
2022-08-25T12:40:45.405Z,28.99
2022-08-25T12:43:42.231Z,28.95
2022-08-25T12:46:26.915Z,29.02
2022-08-25T12:48:57.749Z,29.05
2022-08-25T12:51:27.754Z,29.11
2022-08-25T12:54:19.095Z,29.18
2022-08-25T12:56:58.961Z,29.27
2022-08-25T12:59:32.581Z,29.36
2022-08-25T13:02:07.062Z,29.33
2022-08-25T13:04:53.629Z,29.44
2022-08-25T13:07:53.733Z,29.55
2022-08-25T13:10:26.893Z,29.68
2022-08-25T13:13:25.245Z,29.76
2022-08-25T13:16:02.639Z,29.87
2022-08-25T13:18:32.990Z,30.00
2022-08-25T13:21:20.059Z,30.04
2022-08-25T13:23:49.966Z,30.12
2022-08-25T13:26:26.367Z,30.20
2022-08-25T13:29:17.629Z,30.30
2022-08-25T13:32:09.488Z,30.37
2022-08-25T13:34:42.818Z,30.46
2022-08-25T13:37:31.269Z,30.50
2022-08-25T13:40:13.891Z,30.53
2022-08-25T13:42:44.287Z,30.52
2022-08-25T13:45:16.712Z,30.56
2022-08-25T13:47:45.750Z,30.51
2022-08-25T13:50:27.183Z,30.56
2022-08-25T13:52:56.507Z,30.60
2022-08-25T13:55:50.898Z,30.66
2022-08-25T13:58:24.214Z,30.63
2022-08-25T14:01:22.805Z,30.49
2022-08-25T14:04:22.138Z,30.50
2022-08-25T14:06:50.204Z,30.58
2022-08-25T14:09:28.078Z,30.61
2022-08-25T14:11:59.636Z,30.59
2022-08-25T14:14:27.348Z,30.57
2022-08-25T14:17:21.922Z,30.51
2022-08-25T14:19:55.527Z,30.48
2022-08-25T14:22:23.297Z,30.45
2022-08-25T14:24:51.087Z,30.47
2022-08-25T14:27:20.353Z,30.44
2022-08-25T14:29:52.593Z,30.47
2022-08-25T14:32:20.683Z,30.46
2022-08-25T14:34:48.442Z,30.33
2022-08-25T14:37:18.276Z,30.23
2022-08-25T14:39:47.143Z,30.09
2022-08-25T14:42:15.596Z,29.90
2022-08-25T14:44:43.451Z,29.79
2022-08-25T14:47:11.229Z,29.72
2022-08-25T14:49:41.553Z,29.60
2022-08-25T14:52:11.191Z,29.47
2022-08-25T14:54:40.720Z,29.35
2022-08-25T14:57:09.192Z,29.28
2022-08-25T14:59:37.013Z,29.13
2022-08-25T15:02:11.054Z,29.02
2022-08-25T15:04:39.274Z,28.91
2022-08-25T15:07:30.356Z,28.80
2022-08-25T15:09:59.250Z,28.72
2022-08-25T15:12:46.561Z,28.55
2022-08-25T15:15:15.480Z,28.46
2022-08-25T15:17:44.680Z,28.37
2022-08-25T15:20:12.706Z,28.26
2022-08-25T15:22:43.219Z,28.14
2022-08-25T15:25:11.831Z,28.02
2022-08-25T15:27:39.634Z,27.90
2022-08-25T15:30:08.040Z,27.79
2022-08-25T15:32:35.768Z,27.72
2022-08-25T15:35:03.669Z,27.68
2022-08-25T15:37:32.542Z,27.66
2022-08-25T15:40:01.010Z,27.59
2022-08-25T15:42:28.977Z,27.58
2022-08-25T15:44:57.234Z,27.54
2022-08-25T15:47:25.336Z,27.49
2022-08-25T15:50:00.734Z,27.46
2022-08-25T15:52:44.549Z,27.38
2022-08-25T15:55:14.716Z,27.32
2022-08-25T15:57:42.536Z,27.26
2022-08-25T16:00:16.583Z,27.24
2022-08-25T16:02:46.401Z,27.20
2022-08-25T16:05:16.358Z,27.15
2022-08-25T16:07:51.542Z,27.11
2022-08-25T16:10:19.844Z,27.08
2022-08-25T16:12:48.155Z,27.03
2022-08-25T16:15:17.196Z,27.01
2022-08-25T16:17:51.060Z,26.97
2022-08-25T16:20:19.449Z,26.93
2022-08-25T16:22:47.786Z,26.92
2022-08-25T16:25:15.905Z,26.88
2022-08-25T16:27:45.266Z,26.86
2022-08-25T16:30:17.462Z,26.82
2022-08-25T16:32:46.027Z,26.79
2022-08-25T16:35:14.447Z,26.73
2022-08-25T16:37:42.717Z,26.71
2022-08-25T16:40:14.602Z,26.66
2022-08-25T16:42:42.594Z,26.63
2022-08-25T16:45:10.717Z,26.58
2022-08-25T16:47:39.112Z,26.53
2022-08-25T16:50:08.684Z,26.47
2022-08-25T16:52:58.279Z,26.40
2022-08-25T16:55:27.672Z,26.32
2022-08-25T16:57:55.641Z,26.22
2022-08-25T17:00:25.924Z,26.21
2022-08-25T17:03:00.352Z,26.18
2022-08-25T17:05:29.838Z,26.15
2022-08-25T17:08:18.808Z,26.13
2022-08-25T17:10:46.829Z,26.13
2022-08-25T17:13:14.764Z,26.09
2022-08-25T17:15:43.878Z,26.05
2022-08-25T17:18:13.878Z,26.03
2022-08-25T17:20:44.452Z,26.01
2022-08-25T17:23:13.069Z,25.97
2022-08-25T17:25:42.921Z,25.94
2022-08-25T17:28:12.092Z,25.90
2022-08-25T17:30:40.446Z,25.84
2022-08-25T17:33:08.286Z,25.82
2022-08-25T17:35:43.044Z,25.81
2022-08-25T17:38:10.976Z,25.79
2022-08-25T17:40:39.053Z,25.76
2022-08-25T17:43:09.027Z,25.72
2022-08-25T17:45:38.119Z,25.70
2022-08-25T17:48:08.214Z,25.64
2022-08-25T17:50:37.218Z,25.63
2022-08-25T17:53:06.703Z,25.60
2022-08-25T17:55:34.923Z,25.55
2022-08-25T17:58:04.152Z,25.51
2022-08-25T18:00:33.414Z,25.47
2022-08-25T18:03:02.972Z,25.43
2022-08-25T18:05:30.885Z,25.42
2022-08-25T18:07:58.718Z,25.34
2022-08-25T18:10:27.248Z,25.26
2022-08-25T18:12:55.333Z,25.22
2022-08-25T18:15:23.198Z,25.19
2022-08-25T18:17:51.544Z,25.17
2022-08-25T18:20:20.601Z,25.12
2022-08-25T18:22:48.396Z,25.11
2022-08-25T18:25:16.798Z,25.05
2022-08-25T18:27:44.764Z,24.99
2022-08-25T18:30:13.158Z,24.97
2022-08-25T18:32:41.669Z,24.90
2022-08-25T18:35:16.255Z,24.80
2022-08-25T18:38:08.750Z,24.76
2022-08-25T18:40:36.905Z,24.70
2022-08-25T18:43:07.032Z,24.64
2022-08-25T18:45:49.073Z,24.59
2022-08-25T18:48:18.223Z,24.52
2022-08-25T18:50:50.610Z,24.46
2022-08-25T18:53:30.706Z,24.44
2022-08-25T18:56:06.151Z,24.41
2022-08-25T18:58:34.148Z,24.41
2022-08-25T19:01:05.128Z,24.36
2022-08-25T19:03:33.104Z,24.35
2022-08-25T19:06:01.232Z,24.34
2022-08-25T19:08:29.689Z,24.31
2022-08-25T19:10:57.663Z,24.30
2022-08-25T19:13:25.547Z,24.27
2022-08-25T19:15:53.673Z,24.23
2022-08-25T19:18:26.190Z,24.20
2022-08-25T19:20:57.459Z,24.15
2022-08-25T19:23:26.991Z,24.12
2022-08-25T19:25:54.775Z,24.04
2022-08-25T19:28:24.026Z,23.97
2022-08-25T19:30:52.146Z,23.97
2022-08-25T19:33:42.731Z,23.91
2022-08-25T19:36:08.468Z,23.85
2022-08-25T19:38:37.130Z,23.74
2022-08-25T19:41:09.421Z,23.72
2022-08-25T19:43:50.592Z,23.65
2022-08-25T19:46:25.740Z,23.59
2022-08-25T19:49:06.944Z,23.52
2022-08-25T19:51:36.558Z,23.47
2022-08-25T19:54:05.394Z,23.42
2022-08-25T19:56:36.477Z,23.34
2022-08-25T19:59:04.903Z,23.29
2022-08-25T20:01:33.023Z,23.22
2022-08-25T20:04:02.031Z,23.16
2022-08-25T20:06:35.382Z,23.14
2022-08-25T20:09:03.274Z,23.07
2022-08-25T20:11:34.334Z,22.99
2022-08-25T20:14:04.013Z,22.92
2022-08-25T20:16:32.033Z,22.90
2022-08-25T20:19:01.366Z,22.84
2022-08-25T20:21:31.718Z,22.81
2022-08-25T20:24:18.306Z,22.78
2022-08-25T20:26:46.348Z,22.73
2022-08-25T20:29:14.205Z,22.65
2022-08-25T20:31:42.060Z,22.63
2022-08-25T20:34:17.448Z,22.58
2022-08-25T20:36:50.237Z,22.54
2022-08-25T20:39:19.086Z,22.51
2022-08-25T20:41:48.263Z,22.46
2022-08-25T20:44:17.323Z,22.41
2022-08-25T20:46:45.654Z,22.39
2022-08-25T20:49:14.779Z,22.39
2022-08-25T20:51:43.007Z,22.37
2022-08-25T20:54:14.107Z,22.33
2022-08-25T20:56:42.658Z,22.26
2022-08-25T20:59:11.652Z,22.22
2022-08-25T21:01:40.555Z,22.17
2022-08-25T21:04:11.033Z,22.14
2022-08-25T21:06:42.346Z,22.12
2022-08-25T21:09:15.626Z,22.06
2022-08-25T21:11:43.885Z,21.97
2022-08-25T21:14:13.894Z,21.93
2022-08-25T21:16:42.222Z,21.86
2022-08-25T21:19:11.076Z,21.82
2022-08-25T21:21:40.108Z,21.78
2022-08-25T21:24:10.044Z,21.73
2022-08-25T21:26:47.610Z,21.70
2022-08-25T21:29:16.847Z,21.66
2022-08-25T21:31:44.692Z,21.62
2022-08-25T21:34:12.909Z,21.62
2022-08-25T21:36:40.985Z,21.58
2022-08-25T21:39:08.849Z,21.56
2022-08-25T21:41:37.280Z,21.54
2022-08-25T21:44:05.490Z,21.53
2022-08-25T21:46:33.578Z,21.48
2022-08-25T21:49:06.120Z,21.47
2022-08-25T21:51:40.940Z,21.41
2022-08-25T21:54:10.706Z,21.39
2022-08-25T21:56:46.210Z,21.32
2022-08-25T21:59:16.055Z,21.28
2022-08-25T22:01:44.000Z,21.25
2022-08-25T22:04:12.425Z,21.23
2022-08-25T22:06:40.228Z,21.19
2022-08-25T22:09:08.886Z,21.14
2022-08-25T22:11:36.769Z,21.09
2022-08-25T22:14:04.680Z,21.05
2022-08-25T22:16:35.916Z,21.03
2022-08-25T22:19:05.174Z,20.98
2022-08-25T22:21:33.822Z,20.95
2022-08-25T22:24:01.816Z,20.90
2022-08-25T22:26:31.629Z,20.88
2022-08-25T22:28:59.929Z,20.85
2022-08-25T22:31:28.573Z,20.81
2022-08-25T22:33:57.711Z,20.77
2022-08-25T22:36:27.944Z,20.73
2022-08-25T22:38:55.898Z,20.74
2022-08-25T22:41:24.277Z,20.73
2022-08-25T22:43:53.304Z,20.68
2022-08-25T22:46:21.768Z,20.65
2022-08-25T22:48:50.368Z,20.60
2022-08-25T22:51:21.148Z,20.56
2022-08-25T22:53:49.605Z,20.53
2022-08-25T22:56:19.626Z,20.48
2022-08-25T22:58:51.798Z,20.46
2022-08-25T23:01:20.840Z,20.46
2022-08-25T23:03:48.747Z,20.39
2022-08-25T23:06:24.440Z,20.36
2022-08-25T23:08:54.236Z,20.34
2022-08-25T23:11:22.452Z,20.33
2022-08-25T23:13:50.380Z,20.31
2022-08-25T23:16:18.269Z,20.28
2022-08-25T23:18:47.907Z,20.24
2022-08-25T23:21:38.195Z,20.22
2022-08-25T23:24:10.749Z,20.19
2022-08-25T23:26:42.683Z,20.16
2022-08-25T23:29:18.784Z,20.17
2022-08-25T23:31:47.786Z,20.13
2022-08-25T23:34:16.456Z,20.11
2022-08-25T23:36:44.809Z,20.12
2022-08-25T23:39:12.581Z,20.07
2022-08-25T23:41:41.174Z,20.05
2022-08-25T23:44:11.677Z,20.00
2022-08-25T23:46:39.829Z,19.97
2022-08-25T23:49:09.333Z,19.94
2022-08-25T23:51:38.565Z,19.89
2022-08-25T23:54:10.632Z,19.89
2022-08-25T23:56:42.343Z,19.87
2022-08-25T23:59:18.756Z,19.82
